ZBAA

Beijing Capital International Airport

Beijing, China
TAF ZBAA 181530Z 1818/1918 18004MPS 3500 BR NSC TX25/1907Z TN14/1821Z
Issued Valid From Valid To
Sep-18 @ 15:30 UTC
(2 hours ago)
Sep-18 @ 18:00 UTC
(in 5 minutes)
Sep-19 @ 18:00 UTC
(in 24 hours)
Sep-18 @ 18:00 to Sep-19 @ 18:00
TAF ZBAA 181530Z 1818/1918 18004MPS 3500 BR NSC TX25/1907Z TN14/1821Z
Wind Visibility Clouds Conditions
180° at 8 knots 3,492 meters
  • No significant clouds
  • Mist
TAF ZBAA 181530Z 1818/1918 18004MPS 3500 BR NSC TX25/1907Z TN14/1821Z
Issued Sep-18 @ 15:30 UTC
(2 hours ago)
Valid From Sep-18 @ 18:00 UTC
(in 5 minutes)
Valid To Sep-19 @ 18:00 UTC
(in 24 hours)
Sep-18 @ 18:00 - Sep-19 @ 18:00
Wind Visibility
180° at 8 knots 3,492 meters
Clouds
  • No significant clouds
Conditions
  • Mist